Rawlins, WY

11:41 PM MDT on May 05, 2015 (GMT -0600)
Highland Towne | | Change Station
CLOSE
Current Station
Personal Weather Station
Location: Rawlins, WY
Elevation: 6831 ft
Nearby Weather Stations

Elev 6831 ft 41.82 °N, 107.22 °W | Updated 6 minutes ago

Partly Cloudy
Partly Cloudy
43.5 °F
Feels Like 44 °F
N
0.0
Wind Variable Wind from SW

Today
High -- | Low -- °F
--% Chance of Precip.
Yesterday
High -- | Low -- °F
Precip. -- in
6:00 AM 8:11 PM
Waning Gibbous, 95% visible
Pressure 29.62 in
Visibility 10.0 miles
Clouds Few 11000 ft
Windchill 44 °F
Dew Point 39 °F
Humidity 85%
Rainfall 0.00 in
Snow Depth Not available.
UV 0 out of 12
Pollen 8.70 out of 12
Air Quality Not available.
Flu Activity Sporadic
METAR KRWL 060453Z AUTO 01008KT 10SM FEW110 09/04 A2980 RMK AO2 SLP030 T00890044

More Conditions Fewer Conditions

Pressure 29.62 in
Visibility 10.0 miles
Clouds Few 11000 ft
Windchill 44 °F
Dew Point 39 °F
Humidity 85%
Rainfall 0.00 in
Snow Depth Not available.
UV 0 out of 12
Pollen 8.70 out of 12
Air Quality Not available.
Flu Activity Sporadic
METAR KRWL 060453Z AUTO 01008KT 10SM FEW110 09/04 A2980 RMK AO2 SLP030 T00890044

More Conditions Fewer Conditions

10-Day Weather Forecast

Almanac

Astronomy

May. 05, 2015 Rise Set
Actual Time
Civil Twilight
Nautical Twilight
Astronomical Twilight
Moon
Length of Visible Light
Length of Day
Tomorrow will be .
, % of the Moon is Illuminated

Today's Extremes

State Highs State Lows

Community

WunderPhotos

Upload Photos

1,818,842 photos uploaded!

WunderBlogs® & News

Nearby

Air Quality

  Air Quality AQ Index Pollutant
Not available.

Snow Depth

Station Depth Elevation

Earthquake Activity

City Distance Mag. Time & Date
Minimum magnitude displayed is 2.5.

Coastal Water Temperatures

Place Temperature

Stations

Nearby Weather Stations

Station Location Temp. Windchill Dew Point Humidity Wind Precip. Elev Updated Type